Time;durP1;ratioP1;P1;durP2;ratioP2;P2;SDS_P1;SDS_P2;PMS_P1;PMS_P2;Temp;Humidity;BMP_temperature;BMP_pressure;BME280_temperature;BME280_humidity;BME280_pressure;Samples;Min_cycle;Max_cycle;Signal;HPM_P1;HPM_P2
2023/10/10 00:01:48;;;;;;;10.40;6.70;;;;;;;5.80;100.00;96960.89;109212;1264;22549;-78
2023/10/10 00:04:35;;;;;;;10.50;5.90;;;;;;;5.83;100.00;96960.40;109126;1270;63264;-78
2023/10/10 00:07:08;;;;;;;9.60;5.50;;;;;;;5.84;100.00;96954.58;109178;1261;22522;-78
2023/10/10 00:09:59;;;;;;;9.10;5.80;;;;;;;5.82;100.00;96958.86;109241;1270;25234;-78
2023/10/10 00:12:36;;;;;;;9.30;6.40;;;;;;;5.79;100.00;96961.88;109174;1264;57981;-78
2023/10/10 00:15:22;;;;;;;10.30;6.30;;;;;;;5.81;100.00;96966.58;109233;1270;23971;-78
2023/10/10 00:18:02;;;;;;;9.80;6.60;;;;;;;5.84;100.00;96967.26;109214;1270;22656;-78
2023/10/10 00:20:46;;;;;;;9.80;6.50;;;;;;;5.87;100.00;96969.93;109200;1270;22571;-78
2023/10/10 00:23:20;;;;;;;11.80;8.80;;;;;;;5.88;100.00;96965.90;109224;1264;56063;-78
2023/10/10 00:25:55;;;;;;;13.60;9.50;;;;;;;5.89;100.00;96970.17;109189;1270;22530;-78
2023/10/10 00:28:34;;;;;;;12.00;7.80;;;;;;;5.89;100.00;96966.52;109179;1270;22539;-78
2023/10/10 00:31:11;;;;;;;12.90;8.20;;;;;;;5.90;100.00;96967.94;109201;1271;22734;-78
2023/10/10 00:33:45;;;;;;;11.30;7.80;;;;;;;5.90;100.00;96970.20;109171;1248;83113;-78
2023/10/10 00:36:35;;;;;;;11.80;7.80;;;;;;;5.90;100.00;96959.36;109180;1264;23397;-78
2023/10/10 00:39:30;;;;;;;14.90;9.00;;;;;;;5.90;100.00;96959.77;109210;1270;22648;-78
2023/10/10 00:42:36;;;;;;;13.70;8.70;;;;;;;5.89;100.00;96961.42;109180;1270;23837;-78
2023/10/10 00:45:14;;;;;;;14.10;9.20;;;;;;;5.89;100.00;96956.37;109180;1270;22511;-78
2023/10/10 00:48:00;;;;;;;12.50;8.80;;;;;;;5.89;100.00;96955.80;109219;1270;22527;-78
2023/10/10 00:50:43;;;;;;;15.10;9.40;;;;;;;5.89;100.00;96959.37;109215;1271;22522;-78
2023/10/10 00:53:23;;;;;;;13.40;9.00;;;;;;;5.89;100.00;96956.08;109117;1270;71104;-78
2023/10/10 00:56:05;;;;;;;13.20;8.60;;;;;;;5.90;100.00;96955.67;109191;1271;24282;-78
2023/10/10 00:58:39;;;;;;;13.10;9.60;;;;;;;5.89;100.00;96951.44;109192;1271;22686;-78
2023/10/10 01:01:22;;;;;;;14.30;9.70;;;;;;;5.88;100.00;96947.00;109032;1264;22511;-78
2023/10/10 01:04:06;;;;;;;15.00;10.00;;;;;;;5.88;100.00;96943.52;109216;1268;46579;-78
2023/10/10 01:06:40;;;;;;;11.60;8.60;;;;;;;5.88;100.00;96940.67;109236;1270;22515;-78
2023/10/10 01:09:40;;;;;;;13.40;9.50;;;;;;;5.88;100.00;96941.73;109203;1270;22516;-78
2023/10/10 01:12:17;;;;;;;15.40;9.70;;;;;;;5.89;100.00;96938.11;109207;1264;22525;-78
2023/10/10 01:14:57;;;;;;;14.20;10.20;;;;;;;5.90;100.00;96929.90;109149;1270;45810;-78
2023/10/10 01:17:32;;;;;;;12.80;9.20;;;;;;;5.90;100.00;96929.12;109213;1271;22619;-78
2023/10/10 01:20:34;;;;;;;14.00;10.30;;;;;;;5.91;100.00;96925.02;109199;1270;22534;-78
2023/10/10 01:23:27;;;;;;;14.20;10.20;;;;;;;5.90;100.00;96930.73;109201;1248;40419;-79
2023/10/10 01:26:09;;;;;;;12.90;8.60;;;;;;;5.89;100.00;96932.65;109212;1270;22518;-78
2023/10/10 01:28:54;;;;;;;12.30;9.10;;;;;;;5.91;100.00;96940.08;109198;1270;22506;-78
2023/10/10 01:31:30;;;;;;;12.70;9.20;;;;;;;5.92;100.00;96943.59;109207;1269;22515;-78
2023/10/10 01:34:09;;;;;;;12.60;8.30;;;;;;;5.93;100.00;96946.03;109184;1264;46101;-78
2023/10/10 01:36:50;;;;;;;13.30;9.30;;;;;;;5.94;100.00;96949.29;109192;1271;23801;-78
2023/10/10 01:39:35;;;;;;;12.60;9.40;;;;;;;5.95;100.00;96951.73;109068;1270;22553;-78
2023/10/10 01:42:18;;;;;;;15.10;10.20;;;;;;;5.94;100.00;96950.85;109225;1270;22466;-78
2023/10/10 01:44:54;;;;;;;14.20;9.60;;;;;;;5.97;100.00;96949.02;107877;1257;1775121;-78
2023/10/10 01:47:34;;;;;;;;;;;;;;;5.99;100.00;96950.50;109219;1259;22698;-78
2023/10/10 01:50:14;;;;;;;12.70;9.60;;;;;;;6.01;100.00;96949.84;109175;1270;24312;-78
2023/10/10 01:53:06;;;;;;;12.30;9.10;;;;;;;6.02;100.00;96955.86;109198;1266;45477;-78
2023/10/10 01:55:47;;;;;;;10.50;8.00;;;;;;;5.99;100.00;96958.23;109204;1264;22688;-78
2023/10/10 01:58:25;;;;;;;13.00;9.10;;;;;;;6.01;100.00;96961.70;109186;1269;22477;-78
2023/10/10 02:01:14;;;;;;;13.30;9.20;;;;;;;6.01;100.00;96963.21;109226;1264;22508;-78
2023/10/10 02:03:53;;;;;;;13.70;9.70;;;;;;;6.01;100.00;96962.33;109195;1267;44136;-78
2023/10/10 02:06:29;;;;;;;10.60;8.40;;;;;;;6.00;100.00;96964.32;109184;1270;25233;-78
2023/10/10 02:09:11;;;;;;;10.30;7.50;;;;;;;6.01;100.00;96963.38;109212;1270;22515;-78
2023/10/10 02:11:50;;;;;;;11.50;8.80;;;;;;;5.99;100.00;96959.78;109179;1264;25284;-78
2023/10/10 02:14:30;;;;;;;11.40;7.90;;;;;;;5.97;100.00;96960.75;107435;1270;2339567;-78
2023/10/10 02:17:21;;;;;;;12.30;7.80;;;;;;;5.96;100.00;96963.21;109258;1270;23975;-78
2023/10/10 02:19:58;;;;;;;12.10;8.10;;;;;;;5.96;100.00;96964.80;109185;1267;22493;-78
2023/10/10 02:25:51;;;;;;;;;;;;;;;;;;;;;
2023/10/10 02:28:44;;;;;;;11.20;7.30;;;;;;;5.93;100.00;96961.95;109214;1270;22897;-78
2023/10/10 02:31:35;;;;;;;10.70;7.80;;;;;;;5.93;100.00;96962.17;109206;1267;22516;-78
2023/10/10 02:34:14;;;;;;;12.90;8.80;;;;;;;5.95;100.00;96956.94;109117;1271;71546;-78
2023/10/10 02:37:10;;;;;;;12.10;9.40;;;;;;;5.96;100.00;96952.84;109156;1270;22688;-78
2023/10/10 02:39:56;;;;;;;12.20;8.20;;;;;;;5.95;100.00;96947.89;109214;1270;22636;-78
2023/10/10 02:42:34;;;;;;;11.50;7.90;;;;;;;5.96;100.00;96949.00;109198;1263;22537;-78
2023/10/10 02:45:16;;;;;;;14.00;8.30;;;;;;;5.95;100.00;96952.05;109208;1270;44434;-78
2023/10/10 02:47:55;;;;;;;10.60;7.60;;;;;;;5.97;100.00;96951.21;109206;1262;22641;-78
2023/10/10 02:50:45;;;;;;;10.80;8.00;;;;;;;5.99;100.00;96949.30;109226;1263;22543;-78
2023/10/10 02:53:19;;;;;;;12.20;8.80;;;;;;;6.01;100.00;96948.86;109185;1264;43864;-78
2023/10/10 02:56:01;;;;;;;9.80;7.00;;;;;;;6.03;100.00;96951.45;109163;1270;22506;-78
2023/10/10 02:58:43;;;;;;;11.10;7.40;;;;;;;6.04;100.00;96946.84;109189;1262;24218;-78
2023/10/10 03:01:50;;;;;;;10.50;7.20;;;;;;;6.03;100.00;96952.41;109218;1263;22508;-78
2023/10/10 03:07:27;;;;;;;9.90;7.20;;;;;;;6.03;100.00;96957.03;109197;1270;25297;-78
2023/10/10 03:13:27;;;;;;;15.30;8.10;;;;;;;6.05;100.00;96956.05;109002;1271;40732;-78
2023/10/10 03:22:31;;;;;;;11.90;8.20;;;;;;;6.07;100.00;96964.89;106099;1304;545080;-78
2023/10/10 03:25:23;;;;;;;11.30;8.30;;;;;;;6.05;100.00;96973.27;108705;1273;47126;-78
2023/10/10 03:28:17;;;;;;;10.10;8.10;;;;;;;6.05;100.00;96973.87;108762;1276;26713;-78
2023/10/10 03:31:06;;;;;;;13.20;8.60;;;;;;;6.04;100.00;96973.52;108832;1273;22534;-78
2023/10/10 03:34:01;;;;;;;12.20;8.50;;;;;;;6.03;100.00;96967.67;108815;1274;40813;-78
2023/10/10 03:36:44;;;;;;;10.80;8.00;;;;;;;6.04;100.00;96972.89;108830;1256;183444;-78
2023/10/10 03:39:25;;;;;;;12.30;9.00;;;;;;;6.05;100.00;96979.06;108991;1265;24286;-78
2023/10/10 05:25:41;;;;;;;18.50;11.90;;;;;;;6.39;100.00;97003.13;109107;1271;22533;-78
2023/10/10 05:28:22;;;;;;;16.70;11.70;;;;;;;6.41;100.00;97005.00;109165;1271;22579;-78
2023/10/10 05:30:59;;;;;;;17.40;10.60;;;;;;;6.42;100.00;97007.64;109170;1272;22917;-78
2023/10/10 05:33:47;;;;;;;15.10;10.70;;;;;;;6.41;100.00;97007.80;108998;1264;119916;-78
2023/10/10 05:36:30;;;;;;;17.00;11.50;;;;;;;6.42;100.00;97009.27;109141;1272;23444;-78
2023/10/10 05:39:06;;;;;;;17.60;11.10;;;;;;;6.44;100.00;97005.98;109117;1266;22513;-78
2023/10/10 05:41:40;;;;;;;14.80;10.90;;;;;;;6.46;100.00;97003.85;109201;1265;24008;-78
2023/10/10 05:44:29;;;;;;;14.50;10.80;;;;;;;6.48;100.00;97010.27;105037;1251;5313522;-78
2023/10/10 05:47:01;;;;;;;15.70;11.60;;;;;;;6.50;100.00;97013.83;109002;1272;22574;-79
2023/10/10 05:49:48;;;;;;;15.60;10.00;;;;;;;6.53;100.00;97017.23;109034;1266;23341;-78
2023/10/10 05:52:20;;;;;;;15.60;11.10;;;;;;;6.54;100.00;97017.35;108948;1273;26111;-78
2023/10/10 05:54:59;;;;;;;15.20;11.30;;;;;;;6.59;100.00;97024.52;108896;1272;78301;-78
2023/10/10 05:57:45;;;;;;;15.90;10.90;;;;;;;6.63;100.00;97023.70;109027;1266;22534;-78
2023/10/10 06:00:27;;;;;;;14.50;10.50;;;;;;;6.68;100.00;97027.13;108992;1272;22521;-78
2023/10/10 06:03:04;;;;;;;14.10;10.00;;;;;;;6.72;100.00;97026.70;108982;1250;22546;-78
2023/10/10 06:05:44;;;;;;;15.80;10.30;;;;;;;6.75;100.00;97024.27;109034;1268;69961;-78
2023/10/10 06:08:20;;;;;;;15.30;9.80;;;;;;;6.79;100.00;97020.60;109074;1266;22519;-78
2023/10/10 06:11:01;;;;;;;15.70;10.00;;;;;;;6.80;100.00;97012.66;109101;1272;22518;-78
2023/10/10 06:13:39;;;;;;;14.00;10.10;;;;;;;6.86;100.00;97018.77;105086;1266;5150767;-78
2023/10/10 06:16:29;;;;;;;15.00;10.10;;;;;;;6.88;100.00;97022.17;109102;1272;23770;-78
2023/10/10 06:19:06;;;;;;;13.90;9.40;;;;;;;6.89;100.00;97023.18;109016;1272;22851;-79
2023/10/10 06:21:47;;;;;;;14.20;9.60;;;;;;;6.88;100.00;97019.75;109018;1269;22526;-78
2023/10/10 06:24:24;;;;;;;17.30;10.10;;;;;;;6.88;100.00;97018.05;108993;1270;45635;-78
2023/10/10 06:27:00;;;;;;;13.50;9.80;;;;;;;6.89;100.00;97019.64;109129;1271;22515;-78
2023/10/10 06:29:34;;;;;;;12.50;9.10;;;;;;;6.91;100.00;97021.66;109108;1266;23800;-78
2023/10/10 06:32:16;;;;;;;;;;;;;;;6.94;100.00;97022.59;109143;1271;25294;-78
2023/10/10 06:35:25;;;;;;;12.90;8.70;;;;;;;6.94;100.00;97025.23;109065;1266;48982;-78
2023/10/10 06:37:58;;;;;;;14.80;10.60;;;;;;;6.95;100.00;97025.81;109143;1266;22525;-79
2023/10/10 06:40:42;;;;;;;13.10;9.40;;;;;;;6.96;100.00;97029.62;109135;1266;23932;-78
2023/10/10 06:43:17;;;;;;;14.20;10.00;;;;;;;6.98;100.00;97029.80;109172;1272;22511;-78
2023/10/10 06:45:56;;;;;;;13.00;9.80;;;;;;;7.01;100.00;97030.26;109051;1272;50963;-78
2023/10/10 06:48:40;;;;;;;13.20;10.20;;;;;;;7.07;100.00;97034.04;109108;1262;24222;-78
2023/10/10 06:51:21;;;;;;;12.90;9.50;;;;;;;7.11;100.00;97036.71;109105;1272;25230;-78
2023/10/10 06:53:56;;;;;;;13.70;9.70;;;;;;;7.13;100.00;97039.73;109071;1271;47354;-79
2023/10/10 06:59:27;;;;;;;16.40;12.10;;;;;;;7.19;100.00;97042.39;109117;1266;22515;-78
2023/10/10 07:02:05;;;;;;;16.40;11.50;;;;;;;7.23;100.00;97039.65;109065;1257;22569;-78
2023/10/10 07:04:52;;;;;;;18.10;12.20;;;;;;;7.25;100.00;97041.52;109029;1256;146197;-78
2023/10/10 07:07:30;;;;;;;16.00;12.00;;;;;;;7.35;100.00;97042.11;109146;1272;22514;-78
2023/10/10 07:10:09;;;;;;;17.90;12.50;;;;;;;7.44;100.00;97046.16;109084;1265;23679;-78
2023/10/10 07:12:47;;;;;;;;;;;;;;;7.47;100.00;97042.83;109081;1271;24017;-78
2023/10/10 07:15:42;;;;;;;15.20;10.90;;;;;;;7.48;100.00;97047.86;105087;1269;5410551;-78
2023/10/10 07:18:32;;;;;;;14.80;11.30;;;;;;;7.51;100.00;97041.55;109071;1266;22524;-78
2023/10/10 07:21:23;;;;;;;12.80;9.90;;;;;;;7.54;100.00;97050.60;109083;1265;22511;-78
2023/10/10 07:24:13;;;;;;;14.30;11.00;;;;;;;7.57;100.00;97049.25;109124;1265;54254;-78
2023/10/10 07:26:59;;;;;;;12.00;9.60;;;;;;;7.55;100.00;97057.63;109143;1271;22664;-78
2023/10/10 07:30:16;;;;;;;11.80;8.70;;;;;;;7.53;100.00;97055.91;109104;1271;22526;-77
2023/10/10 07:32:52;;;;;;;13.20;9.50;;;;;;;7.59;100.00;97056.73;109001;1266;23103;-77
2023/10/10 07:35:53;;;;;;;11.30;9.60;;;;;;;7.64;100.00;97052.34;109037;1269;88353;-77
2023/10/10 07:38:28;;;;;;;13.40;9.50;;;;;;;7.71;100.00;97063.72;109059;1268;23806;-77
2023/10/10 07:41:04;;;;;;;12.90;9.60;;;;;;;7.70;100.00;97060.16;109129;1269;23910;-77
2023/10/10 07:43:42;;;;;;;14.80;9.40;;;;;;;7.68;100.00;97061.26;109091;1271;44256;-77
2023/10/10 07:46:23;;;;;;;13.10;10.20;;;;;;;7.71;100.00;97062.81;109008;1266;22514;-77
2023/10/10 07:49:02;;;;;;;12.60;9.40;;;;;;;7.78;100.00;97062.95;109149;1271;22637;-77
2023/10/10 07:51:49;;;;;;;11.80;8.50;;;;;;;7.82;100.00;97064.14;109105;1269;22518;-77
2023/10/10 07:54:30;;;;;;;13.30;8.60;;;;;;;7.84;100.00;97060.40;108977;1271;65603;-78
2023/10/10 07:57:12;;;;;;;13.00;10.00;;;;;;;7.87;100.00;97052.83;109056;1272;22511;-77
2023/10/10 07:59:55;;;;;;;13.20;10.20;;;;;;;7.94;100.00;97056.71;109081;1266;22650;-77
2023/10/10 08:02:32;;;;;;;13.20;9.70;;;;;;;8.06;100.00;97051.75;109087;1271;22649;-78
2023/10/10 08:05:19;;;;;;;12.10;9.20;;;;;;;8.19;100.00;97056.46;108932;1257;70321;-77
2023/10/10 08:07:51;;;;;;;16.40;10.30;;;;;;;8.30;100.00;97061.72;109084;1271;22525;-77
2023/10/10 08:10:39;;;;;;;13.40;10.10;;;;;;;8.36;100.00;97067.45;109110;1266;23025;-77
2023/10/10 08:13:17;;;;;;;14.00;10.80;;;;;;;8.41;100.00;97065.59;109119;1271;22637;-77
2023/10/10 08:15:56;;;;;;;14.50;10.80;;;;;;;8.52;100.00;97060.91;107428;1269;2296580;-77
2023/10/10 08:18:49;;;;;;;12.20;9.80;;;;;;;8.64;100.00;97064.39;109127;1266;22514;-77
2023/10/10 08:21:36;;;;;;;12.80;10.50;;;;;;;8.72;100.00;97058.63;109102;1272;22515;-77
2023/10/10 08:24:12;;;;;;;13.00;10.10;;;;;;;8.78;100.00;97060.25;107611;1271;2015205;-77
2023/10/10 08:26:52;;;;;;;12.50;9.80;;;;;;;8.84;100.00;97062.77;109122;1268;22489;-77
2023/10/10 08:29:31;;;;;;;11.50;9.40;;;;;;;8.86;100.00;97060.14;109069;1257;24000;-77
2023/10/10 08:35:15;;;;;;;12.30;9.80;;;;;;;8.86;100.00;97061.04;109062;1268;31219;-77
2023/10/10 08:37:56;;;;;;;12.40;9.30;;;;;;;8.90;100.00;97059.80;109109;1266;22532;-77
2023/10/10 08:40:47;;;;;;;10.70;8.90;;;;;;;8.92;100.00;97067.05;109083;1271;22532;-77
2023/10/10 08:43:38;;;;;;;14.30;10.40;;;;;;;8.92;100.00;97060.58;109143;1266;22552;-77
2023/10/10 08:46:15;;;;;;;15.10;11.10;;;;;;;9.01;100.00;97072.34;109081;1270;48174;-77
2023/10/10 08:48:57;;;;;;;14.90;10.90;;;;;;;9.05;100.00;97074.31;109124;1272;24183;-77
2023/10/10 08:51:44;;;;;;;13.30;11.30;;;;;;;9.10;100.00;97081.89;109129;1267;23846;-77
2023/10/10 08:54:26;;;;;;;13.10;10.80;;;;;;;9.14;100.00;97082.33;108991;1268;97192;-77
2023/10/10 08:57:10;;;;;;;15.50;12.00;;;;;;;9.20;100.00;97085.87;109132;1265;24976;-77
2023/10/10 08:59:52;;;;;;;14.00;11.10;;;;;;;9.27;100.00;97081.50;109052;1271;22525;-77
2023/10/10 09:02:33;;;;;;;16.30;12.90;;;;;;;9.37;100.00;97080.74;109107;1271;22529;-78
2023/10/10 09:05:23;;;;;;;12.60;10.20;;;;;;;9.47;100.00;97086.20;107518;1271;2084713;-77
2023/10/10 09:08:14;;;;;;;12.40;10.60;;;;;;;9.43;100.00;97087.13;109086;1271;22513;-77
2023/10/10 09:11:04;;;;;;;13.30;10.00;;;;;;;9.37;100.00;97085.56;109074;1271;22675;-77
2023/10/10 09:14:02;;;;;;;13.80;11.20;;;;;;;9.39;100.00;97093.14;109129;1271;25319;-77
2023/10/10 09:16:49;;;;;;;12.40;10.70;;;;;;;9.44;100.00;97095.98;109106;1271;25202;-77
2023/10/10 09:19:27;;;;;;;12.50;10.20;;;;;;;9.44;100.00;97094.18;109139;1250;25934;-77
2023/10/10 09:22:12;;;;;;;13.00;10.10;;;;;;;9.46;100.00;97096.78;109096;1271;25903;-77
2023/10/10 09:24:51;;;;;;;12.90;10.40;;;;;;;9.49;100.00;97099.02;108999;1265;56217;-77
2023/10/10 09:27:35;;;;;;;12.90;9.90;;;;;;;9.59;100.00;97099.38;109035;1271;25417;-78
2023/10/10 09:30:10;;;;;;;;;;;;;;;9.66;100.00;97098.33;109094;1256;24038;-77
2023/10/10 09:32:57;;;;;;;13.20;10.60;;;;;;;9.79;100.00;97101.02;109142;1271;22543;-77
2023/10/10 09:35:34;;;;;;;14.60;11.30;;;;;;;9.87;100.00;97102.00;108994;1266;94547;-78
2023/10/10 09:38:21;;;;;;;15.50;12.40;;;;;;;10.02;100.00;97107.91;109049;1266;23997;-78
2023/10/10 09:41:10;;;;;;;16.70;12.70;;;;;;;10.18;100.00;97110.06;109102;1269;22517;-78
2023/10/10 09:44:27;;;;;;;15.20;10.80;;;;;;;10.22;100.00;97110.28;109073;1266;22514;-78
2023/10/10 09:47:37;;;;;;;13.40;10.60;;;;;;;10.16;100.00;97112.45;109110;1265;22533;-78
2023/10/10 09:53:07;;;;;;;12.40;10.20;;;;;;;10.16;100.00;97115.05;109076;1271;23996;-78
2023/10/10 09:55:47;;;;;;;13.30;10.70;;;;;;;10.23;100.00;97115.91;109046;1272;66136;-78
2023/10/10 09:58:41;;;;;;;16.00;10.80;;;;;;;10.29;100.00;97119.65;109036;1269;22518;-78
2023/10/10 10:01:23;;;;;;;11.50;9.90;;;;;;;10.26;100.00;97114.98;109091;1271;22576;-78
2023/10/10 10:04:22;;;;;;;13.20;10.50;;;;;;;10.21;100.00;97114.27;109097;1272;24244;-78
2023/10/10 10:07:13;;;;;;;10.30;8.50;;;;;;;10.29;100.00;97114.23;108996;1273;24245;-78
2023/10/10 10:10:22;;;;;;;12.70;10.10;;;;;;;10.37;100.00;97110.15;108961;1266;22524;-78
2023/10/10 10:13:37;;;;;;;13.80;10.30;;;;;;;10.43;100.00;97105.83;108973;1272;22551;-78
2023/10/10 10:16:53;;;;;;;16.20;10.20;;;;;;;10.47;100.00;97103.75;108960;1272;38482;-78
2023/10/10 10:19:53;;;;;;;12.80;9.30;;;;;;;10.50;100.00;97104.96;109000;1270;22527;-78
2023/10/10 10:22:35;;;;;;;12.40;9.30;;;;;;;10.53;100.00;97104.17;108893;1268;23785;-78
2023/10/10 10:25:22;;;;;;;12.30;9.80;;;;;;;10.59;100.00;97101.85;108825;1272;48238;-78
2023/10/10 10:28:14;;;;;;;12.70;9.70;;;;;;;10.66;100.00;97100.23;108959;1269;22581;-78
2023/10/10 10:31:07;;;;;;;12.50;10.40;;;;;;;10.75;100.00;97092.45;108909;1273;22523;-78
2023/10/10 10:34:05;;;;;;;14.40;9.80;;;;;;;10.85;100.00;97093.80;108945;1273;22535;-78
2023/10/10 10:37:20;;;;;;;11.70;9.90;;;;;;;10.88;100.00;97093.39;108929;1275;23873;-77
2023/10/10 10:40:24;;;;;;;12.40;10.50;;;;;;;10.91;100.00;97087.11;108739;1274;22514;-78
2023/10/10 10:43:03;;;;;;;13.00;10.20;;;;;;;11.02;100.00;97084.28;108838;1275;22568;-77
2023/10/10 10:45:44;;;;;;;12.60;10.00;;;;;;;11.03;100.00;97081.42;108868;1274;59960;-77
2023/10/10 10:48:37;;;;;;;12.50;9.90;;;;;;;11.02;100.00;97080.68;108891;1270;23913;-78
2023/10/10 10:51:41;;;;;;;13.40;10.30;;;;;;;11.07;100.00;97083.47;108924;1267;22556;-78
2023/10/10 10:57:27;;;;;;;14.10;10.30;;;;;;;11.20;100.00;97081.68;108863;1275;22522;-77
2023/10/10 11:00:19;;;;;;;12.30;10.10;;;;;;;11.32;100.00;97081.86;108845;1274;24269;-78
2023/10/10 11:03:09;;;;;;;11.70;9.60;;;;;;;11.45;100.00;97079.54;108911;1267;25427;-77
2023/10/10 11:05:46;;;;;;;11.30;10.00;;;;;;;11.58;100.00;97074.23;107310;1273;2045539;-77
2023/10/10 11:08:51;;;;;;;11.10;9.40;;;;;;;11.67;100.00;97076.36;108889;1273;25398;-78
2023/10/10 11:11:27;;;;;;;12.10;9.50;;;;;;;11.81;100.00;97076.73;108890;1272;22538;-78
2023/10/10 11:14:03;;;;;;;12.20;9.30;;;;;;;11.85;100.00;97075.18;108887;1262;22550;-77
2023/10/10 11:16:56;;;;;;;12.10;10.00;;;;;;;11.84;100.00;97074.07;107140;1274;2320754;-78
2023/10/10 11:19:41;;;;;;;13.00;9.90;;;;;;;11.73;100.00;97076.16;108921;1266;25429;-78
2023/10/10 11:25:35;;;;;;;12.40;10.00;;;;;;;11.74;100.00;97070.27;107659;1273;1749630;-77
2023/10/10 11:28:07;;;;;;;10.60;9.10;;;;;;;11.78;100.00;97071.25;108977;1269;24375;-77
2023/10/10 11:30:49;;;;;;;11.00;9.40;;;;;;;11.82;100.00;97070.20;108978;1269;22536;-78
2023/10/10 11:33:48;;;;;;;12.00;8.90;;;;;;;11.88;100.00;97066.71;108949;1272;22534;-77
2023/10/10 11:36:37;;;;;;;11.10;8.90;;;;;;;11.95;100.00;97066.56;108894;1273;83872;-78
2023/10/10 11:39:33;;;;;;;12.50;9.10;;;;;;;11.96;100.00;97065.70;108917;1273;23802;-78
2023/10/10 11:42:23;;;;;;;11.70;9.10;;;;;;;11.90;100.00;97056.69;108970;1273;22522;-78
2023/10/10 11:45:00;;;;;;;12.40;9.70;;;;;;;11.99;100.00;97063.52;108858;1273;106015;-78
2023/10/10 11:47:42;;;;;;;11.60;9.10;;;;;;;12.03;100.00;97059.92;108943;1273;23007;-77
2023/10/10 11:50:17;;;;;;;12.30;9.80;;;;;;;12.03;100.00;97060.71;108928;1272;22602;-77
2023/10/10 11:52:57;;;;;;;10.60;9.00;;;;;;;12.02;100.00;97065.20;108957;1272;25414;-78
2023/10/10 11:55:30;;;;;;;11.00;8.40;;;;;;;11.98;100.00;97066.50;107447;1268;1968890;-78
2023/10/10 11:58:07;;;;;;;11.90;8.60;;;;;;;11.93;100.00;97066.83;108971;1263;22532;-78
2023/10/10 12:00:59;;;;;;;10.80;8.40;;;;;;;11.86;100.00;97070.23;108997;1272;22640;-78
2023/10/10 12:03:41;;;;;;;9.40;7.80;;;;;;;11.80;100.00;97070.52;108999;1272;22513;-78
2023/10/10 12:06:26;;;;;;;11.50;9.40;;;;;;;11.72;100.00;97065.39;105050;1270;5149021;-78
2023/10/10 12:09:02;;;;;;;10.90;8.10;;;;;;;11.73;100.00;97065.81;108989;1272;24920;-78
2023/10/10 12:11:38;;;;;;;12.30;9.10;;;;;;;11.66;100.00;97060.86;108916;1266;23716;-78
2023/10/10 12:14:19;;;;;;;11.90;9.20;;;;;;;11.70;100.00;97061.85;108960;1272;25459;-78
2023/10/10 12:16:58;;;;;;;11.70;9.40;;;;;;;11.75;100.00;97062.13;108916;1269;47322;-78
2023/10/10 12:19:36;;;;;;;;;;;;;;;11.77;100.00;97059.09;108978;1269;22488;-78
2023/10/10 12:22:17;;;;;;;12.30;9.30;;;;;;;11.68;100.00;97051.55;108979;1272;24196;-78
2023/10/10 12:24:52;;;;;;;14.00;10.00;;;;;;;11.61;100.00;97055.19;108934;1266;49116;-78
2023/10/10 12:27:29;;;;;;;11.50;9.50;;;;;;;11.63;100.00;97052.15;108965;1267;22515;-78
2023/10/10 12:30:04;;;;;;;11.70;9.40;;;;;;;11.71;100.00;97048.60;108980;1272;24184;-78
2023/10/10 12:32:41;;;;;;;11.20;8.60;;;;;;;11.78;100.00;97041.71;108964;1265;22507;-77
2023/10/10 12:35:20;;;;;;;11.70;9.90;;;;;;;11.85;100.00;97044.25;107218;1273;2309930;-77
2023/10/10 12:38:01;;;;;;;15.00;9.60;;;;;;;11.86;100.00;97040.21;108983;1272;22490;-77
2023/10/10 12:40:43;;;;;;;12.60;10.10;;;;;;;11.93;100.00;97043.88;108941;1268;22827;-78
2023/10/10 12:43:16;;;;;;;13.50;9.80;;;;;;;11.95;100.00;97039.56;108933;1269;22541;-78
2023/10/10 12:45:55;;;;;;;13.40;10.40;;;;;;;11.93;100.00;97043.23;108945;1273;49023;-78
2023/10/10 12:48:28;;;;;;;12.70;9.40;;;;;;;11.89;100.00;97040.35;108989;1250;24313;-78
2023/10/10 12:51:02;;;;;;;12.00;9.20;;;;;;;11.89;100.00;97038.13;108940;1273;22517;-78
2023/10/10 12:53:39;;;;;;;13.70;9.90;;;;;;;11.86;100.00;97038.94;108968;1272;23810;-78
2023/10/10 12:56:21;;;;;;;11.60;9.30;;;;;;;11.81;99.99;97038.27;108946;1266;40246;-77
2023/10/10 12:59:00;;;;;;;12.40;9.90;;;;;;;11.79;100.00;97037.31;108982;1269;22541;-77
2023/10/10 13:01:35;;;;;;;12.70;9.60;;;;;;;11.78;99.97;97039.74;108927;1254;22524;-77
2023/10/10 13:04:08;;;;;;;12.40;9.70;;;;;;;11.73;99.89;97039.14;108951;1272;22624;-78
2023/10/10 13:06:51;;;;;;;13.80;9.40;;;;;;;11.69;99.99;97037.41;108926;1269;35782;-77
2023/10/10 13:09:27;;;;;;;13.20;9.80;;;;;;;11.69;99.98;97041.73;108980;1272;22520;-78
2023/10/10 13:12:05;;;;;;;14.70;10.70;;;;;;;11.69;100.00;97042.09;108973;1272;22457;-78
2023/10/10 13:14:46;;;;;;;14.20;10.20;;;;;;;11.70;100.00;97039.22;108971;1269;22581;-77
2023/10/10 13:17:49;;;;;;;16.00;10.00;;;;;;;11.72;100.00;97039.46;108933;1273;23370;-77
2023/10/10 13:20:25;;;;;;;12.30;9.50;;;;;;;11.74;100.00;97039.66;108995;1271;23828;-77
2023/10/10 13:22:57;;;;;;;13.10;9.70;;;;;;;11.77;100.00;97034.17;109075;1269;22630;-77
2023/10/10 13:25:37;;;;;;;13.10;9.30;;;;;;;11.80;100.00;97032.85;108917;1267;43749;-78
2023/10/10 13:28:17;;;;;;;12.00;9.00;;;;;;;11.78;100.00;97025.52;108967;1271;22514;-77
2023/10/10 13:30:54;;;;;;;13.50;9.50;;;;;;;11.86;100.00;97030.59;109046;1269;22557;-78
2023/10/10 13:33:28;;;;;;;11.80;9.90;;;;;;;11.92;100.00;97032.09;109002;1271;22831;-77
2023/10/10 13:36:00;;;;;;;11.10;9.40;;;;;;;11.98;100.00;97030.26;108941;1269;125285;-77
2023/10/10 13:38:34;;;;;;;11.90;9.80;;;;;;;12.03;100.00;97029.47;109051;1269;22564;-77
2023/10/10 13:41:08;;;;;;;11.70;9.40;;;;;;;12.06;100.00;97035.61;109076;1272;22525;-77
2023/10/10 13:43:57;;;;;;;13.20;9.80;;;;;;;12.02;100.00;97039.63;108959;1269;24203;-77
2023/10/10 13:46:32;;;;;;;16.20;10.30;;;;;;;12.00;100.00;97036.89;108983;1270;93274;-77
2023/10/10 13:49:08;;;;;;;13.50;10.20;;;;;;;12.00;100.00;97036.35;109103;1272;24241;-77
2023/10/10 13:51:51;;;;;;;12.20;9.80;;;;;;;11.99;100.00;97034.08;109070;1266;24102;-77
2023/10/10 13:54:23;;;;;;;12.50;9.10;;;;;;;11.97;100.00;97032.39;109066;1272;22518;-77
2023/10/10 13:56:58;;;;;;;12.30;9.90;;;;;;;11.97;100.00;97033.17;109023;1267;49709;-77
2023/10/10 13:59:49;;;;;;;13.10;10.40;;;;;;;11.96;100.00;97038.59;109034;1272;22535;-77
2023/10/10 14:02:25;;;;;;;13.10;10.10;;;;;;;11.98;100.00;97038.71;109099;1269;22548;-78
2023/10/10 14:05:00;;;;;;;12.90;9.80;;;;;;;11.97;100.00;97038.02;109040;1272;23487;-77
2023/10/10 14:07:38;;;;;;;14.10;10.50;;;;;;;11.96;100.00;97039.92;109102;1272;22651;-77
2023/10/10 14:10:20;;;;;;;13.60;10.60;;;;;;;11.94;100.00;97037.87;109042;1272;22507;-77
2023/10/10 14:13:11;;;;;;;13.30;10.20;;;;;;;11.92;100.00;97038.30;109037;1272;23916;-78
2023/10/10 14:15:56;;;;;;;14.50;10.80;;;;;;;11.90;100.00;97040.40;108976;1272;33017;-77
2023/10/10 14:18:31;;;;;;;14.50;10.20;;;;;;;11.88;100.00;97045.50;109003;1269;22574;-77
2023/10/10 14:21:15;;;;;;;13.10;10.70;;;;;;;11.88;100.00;97041.69;109027;1266;22514;-78
2023/10/10 14:23:48;;;;;;;14.00;10.60;;;;;;;11.88;100.00;97044.02;108999;1272;24360;-78
2023/10/10 14:26:30;;;;;;;13.00;10.20;;;;;;;11.88;100.00;97041.89;108998;1267;48930;-77
2023/10/10 14:29:13;;;;;;;14.30;11.10;;;;;;;11.87;100.00;97038.08;109024;1272;25236;-78
2023/10/10 14:31:58;;;;;;;15.60;11.50;;;;;;;11.86;100.00;97043.35;108972;1269;22517;-78
2023/10/10 14:34:34;;;;;;;15.10;12.30;;;;;;;11.85;100.00;97046.27;108984;1271;22536;-77
2023/10/10 14:37:06;;;;;;;16.50;12.60;;;;;;;11.82;100.00;97046.55;108875;1269;91311;-77
2023/10/10 14:39:51;;;;;;;14.70;12.10;;;;;;;11.81;100.00;97045.44;108955;1273;22538;-77